Time;durP1;ratioP1;P1;durP2;ratioP2;P2;SDS_P1;SDS_P2;PMS_P1;PMS_P2;Temp;Humidity;BMP_temperature;BMP_pressure;BME280_temperature;BME280_humidity;BME280_pressure;Samples;Min_cycle;Max_cycle;Signal;HPM_P1;HPM_P2
2023/05/19 07:47:55;;;;;;;22.90;21.40;;;25.20;99.90;;;;;;6227180;22;20022;-94
2023/05/19 07:50:27;;;;;;;24.08;22.17;;;25.30;99.90;;;;;;6193436;22;20035;-94
2023/05/19 07:53:07;;;;;;;23.75;21.92;;;25.50;99.90;;;;;;6227781;23;20075;-95
2023/05/19 07:56:23;;;;;;;24.30;22.60;;;25.80;99.90;;;;;;6229275;23;20012;-96
2023/05/19 07:59:12;;;;;;;23.85;22.42;;;25.40;99.90;;;;;;6163863;23;20413;-95
2023/05/19 08:01:38;;;;;;;24.05;22.52;;;25.20;99.90;;;;;;6163290;23;20005;-96
2023/05/19 08:04:05;;;;;;;25.95;23.50;;;25.70;99.90;;;;;;6159809;23;20009;-94
2023/05/19 08:06:31;;;;;;;23.75;22.35;;;25.70;99.90;;;;;;6164198;23;20509;-94
2023/05/19 08:08:58;;;;;;;24.48;23.00;;;25.90;99.90;;;;;;6175436;23;20017;-94
2023/05/19 08:11:25;;;;;;;24.77;23.20;;;25.30;99.90;;;;;;6162200;23;20149;-94
2023/05/19 08:13:52;;;;;;;24.08;22.45;;;25.40;99.90;;;;;;6160466;23;20029;-94
2023/05/19 08:16:31;;;;;;;23.92;22.27;;;25.00;99.90;;;;;;6161747;23;20009;-95
2023/05/19 08:18:59;;;;;;;24.70;22.90;;;24.60;99.90;;;;;;6162140;23;20064;-92
2023/05/19 08:21:26;;;;;;;24.27;22.80;;;24.60;99.90;;;;;;6188127;23;20016;-94
2023/05/19 08:23:55;;;;;;;22.98;21.58;;;24.60;99.90;;;;;;6181651;23;20041;-94
2023/05/19 08:26:22;;;;;;;23.63;22.13;;;24.50;99.90;;;;;;6159880;23;20095;-94
2023/05/19 08:28:48;;;;;;;23.77;21.85;;;24.80;99.90;;;;;;6159767;23;20009;-94
2023/05/19 08:31:17;;;;;;;22.83;21.35;;;25.10;99.90;;;;;;6160007;23;20005;-94
2023/05/19 08:33:44;;;;;;;23.52;21.92;;;25.00;99.90;;;;;;6159748;23;20012;-95
2023/05/19 08:36:11;;;;;;;22.90;21.58;;;25.20;99.90;;;;;;6137604;23;20004;-94
2023/05/19 08:38:43;;;;;;;24.05;22.42;;;25.60;99.90;;;;;;6161650;23;20017;-95
2023/05/19 08:41:09;;;;;;;23.42;21.92;;;25.50;99.90;;;;;;6162877;23;20096;-94
2023/05/19 08:43:44;;;;;;;23.13;21.52;;;25.20;99.90;;;;;;6192368;23;20087;-94
2023/05/19 08:46:15;;;;;;;22.35;20.80;;;25.10;99.90;;;;;;6194538;23;20009;-96
2023/05/19 08:48:58;;;;;;;22.88;21.33;;;24.80;99.90;;;;;;6193219;23;20008;-95
2023/05/19 08:51:38;;;;;;;24.17;22.05;;;25.00;99.90;;;;;;6218783;23;20374;-96
2023/05/19 08:54:16;;;;;;;24.73;22.83;;;25.30;99.90;;;;;;6193442;23;20488;-94
2023/05/19 08:56:44;;;;;;;25.30;23.33;;;26.00;99.90;;;;;;6192574;23;20008;-95
2023/05/19 08:59:17;;;;;;;24.73;23.10;;;25.90;99.90;;;;;;6192435;23;20044;-95
2023/05/19 09:01:45;;;;;;;24.63;22.92;;;25.80;99.90;;;;;;6192768;23;20058;-95
2023/05/19 09:04:12;;;;;;;24.85;22.95;;;26.40;99.90;;;;;;6193017;23;20013;-94
2023/05/19 09:06:43;;;;;;;25.05;23.20;;;26.20;99.90;;;;;;6192828;23;20028;-94
2023/05/19 09:09:10;;;;;;;24.27;22.70;;;26.40;99.90;;;;;;6192739;23;20008;-95
2023/05/19 09:11:37;;;;;;;23.83;21.95;;;26.10;99.90;;;;;;6192793;23;20013;-95
2023/05/19 09:14:04;;;;;;;24.17;22.50;;;26.00;99.90;;;;;;6192460;23;20430;-94
2023/05/19 09:16:33;;;;;;;24.33;22.48;;;26.20;99.90;;;;;;6192204;23;20092;-95
2023/05/19 09:18:59;;;;;;;23.77;22.15;;;26.00;99.90;;;;;;6192012;23;20016;-94
2023/05/19 09:21:30;;;;;;;24.15;22.30;;;25.60;99.90;;;;;;6192474;23;20005;-94
2023/05/19 09:24:07;;;;;;;24.02;22.35;;;25.60;99.90;;;;;;6192549;23;20009;-96
2023/05/19 09:26:39;;;;;;;23.67;21.88;;;25.60;99.90;;;;;;6192114;23;20012;-94
2023/05/19 09:29:16;;;;;;;23.42;21.92;;;25.30;99.90;;;;;;6192379;23;20004;-94
2023/05/19 09:31:51;;;;;;;23.52;21.92;;;25.60;99.90;;;;;;6192205;23;20012;-95
2023/05/19 09:34:18;;;;;;;23.50;21.77;;;25.90;99.90;;;;;;6192432;23;20132;-95
2023/05/19 09:36:50;;;;;;;23.45;21.65;;;25.90;99.90;;;;;;6192345;23;20032;-94
2023/05/19 09:39:19;;;;;;;22.73;21.23;;;25.50;99.90;;;;;;6195224;23;20017;-94
2023/05/19 09:41:46;;;;;;;22.67;21.00;;;25.30;99.90;;;;;;6195687;23;20084;-95
2023/05/19 09:44:23;;;;;;;22.80;20.88;;;24.20;99.90;;;;;;6191869;23;20005;-94
2023/05/19 09:46:52;;;;;;;21.45;20.15;;;23.80;99.90;;;;;;6192343;23;20009;-95
2023/05/19 09:49:24;;;;;;;22.95;21.40;;;24.00;99.90;;;;;;6193585;23;20005;-94
2023/05/19 09:52:02;;;;;;;22.60;21.00;;;24.00;99.90;;;;;;6197086;23;20016;-95
2023/05/19 09:54:31;;;;;;;22.08;20.58;;;24.50;99.90;;;;;;6197648;23;20008;-95
2023/05/19 09:57:02;;;;;;;22.30;20.40;;;24.50;99.90;;;;;;6197575;23;20015;-94
2023/05/19 09:59:30;;;;;;;21.33;19.92;;;24.80;99.90;;;;;;6197297;23;20015;-94
2023/05/19 10:01:58;;;;;;;21.58;20.02;;;25.00;99.90;;;;;;6197417;23;20091;-94
2023/05/19 10:04:28;;;;;;;21.52;20.08;;;25.00;99.90;;;;;;6223409;23;20413;-94
2023/05/19 10:07:04;;;;;;;21.52;20.02;;;24.60;99.90;;;;;;6221890;23;20421;-94
2023/05/19 10:09:33;;;;;;;21.63;19.65;;;24.20;99.90;;;;;;6201477;22;20066;-94
2023/05/19 10:11:59;;;;;;;20.45;19.13;;;23.90;99.90;;;;;;6224659;22;20035;-94
2023/05/19 10:14:29;;;;;;;21.25;19.83;;;23.90;99.90;;;;;;6217424;23;20012;-93
2023/05/19 10:16:58;;;;;;;21.10;19.63;;;24.10;99.90;;;;;;6200705;23;20441;-93
2023/05/19 10:19:27;;;;;;;21.10;19.70;;;24.20;99.90;;;;;;6196330;23;20039;-94
2023/05/19 10:21:54;;;;;;;21.38;19.58;;;24.30;99.90;;;;;;6221971;23;20004;-93
2023/05/19 10:24:21;;;;;;;21.60;20.17;;;24.30;99.90;;;;;;6197433;23;20004;-94
2023/05/19 10:27:02;;;;;;;21.80;20.30;;;23.80;99.90;;;;;;6197756;23;20009;-94
2023/05/19 10:29:35;;;;;;;21.85;20.50;;;24.00;99.90;;;;;;6197276;23;20005;-94
2023/05/19 10:32:10;;;;;;;21.50;20.30;;;24.00;99.90;;;;;;6222507;23;20008;-95
2023/05/19 10:35:12;;;;;;;21.77;20.20;;;24.10;99.90;;;;;;6201502;23;20008;-95
2023/05/19 10:38:32;;;;;;;20.80;19.50;;;24.30;99.90;;;;;;6197874;23;20016;-94
2023/05/19 10:41:21;;;;;;;20.63;19.35;;;24.00;99.90;;;;;;6206258;23;20008;-93
2023/05/19 10:44:06;;;;;;;20.60;19.20;;;23.60;99.90;;;;;;6196460;23;20142;-94
2023/05/19 10:46:33;;;;;;;20.10;18.80;;;24.00;99.90;;;;;;6196528;23;20004;-94
2023/05/19 10:49:00;;;;;;;21.05;19.42;;;24.30;99.90;;;;;;6197119;23;20012;-95
2023/05/19 10:51:31;;;;;;;22.83;21.02;;;24.10;99.90;;;;;;6192479;23;20044;-93
2023/05/19 10:54:01;;;;;;;21.70;20.10;;;24.00;99.90;;;;;;6193163;23;20067;-95
2023/05/19 10:56:35;;;;;;;21.15;19.95;;;24.30;99.90;;;;;;6192492;23;20032;-94
2023/05/19 10:59:02;;;;;;;;;;;24.10;99.90;;;;;;6192075;23;20047;-95
2023/05/19 11:01:34;;;;;;;22.38;20.80;;;24.40;99.90;;;;;;6191839;23;19899;-94
2023/05/19 11:04:12;;;;;;;22.40;20.95;;;24.70;99.90;;;;;;6192136;23;20012;-94
2023/05/19 11:06:40;;;;;;;22.45;20.98;;;24.70;99.90;;;;;;6191704;23;20012;-94
2023/05/19 11:09:14;;;;;;;22.30;20.80;;;24.80;99.90;;;;;;6191937;23;20016;-95
2023/05/19 11:12:09;;;;;;;22.60;20.77;;;25.10;99.90;;;;;;6199666;23;20012;-94
2023/05/19 11:14:36;;;;;;;22.25;20.88;;;24.90;99.90;;;;;;6203659;23;20063;-94
2023/05/19 11:17:06;;;;;;;21.85;20.35;;;24.60;99.90;;;;;;6199518;23;20005;-94
2023/05/19 11:20:57;;;;;;;21.80;20.55;;;24.70;99.90;;;;;;6195102;23;20020;-96
2023/05/19 11:23:42;;;;;;;22.85;21.55;;;24.10;99.90;;;;;;6158698;23;20008;-94
2023/05/19 11:26:09;;;;;;;22.90;21.38;;;23.80;99.90;;;;;;6137155;23;20032;-95
2023/05/19 11:28:37;;;;;;;22.98;21.48;;;24.30;99.90;;;;;;6172077;23;20050;-94
2023/05/19 11:31:09;;;;;;;22.50;21.05;;;24.70;99.90;;;;;;6192620;23;20012;-95
2023/05/19 11:33:38;;;;;;;22.92;21.42;;;25.00;99.90;;;;;;6191706;23;20008;-93
2023/05/19 11:36:05;;;;;;;23.20;21.67;;;25.30;99.90;;;;;;6192995;23;20009;-94
2023/05/19 11:38:34;;;;;;;23.98;22.35;;;25.20;99.90;;;;;;6191865;23;20377;-94
2023/05/19 11:41:40;;;;;;;;;;;;;;;;;;;;;
2023/05/19 11:44:37;;;;;;;22.70;20.98;;;25.30;99.90;;;;;;6114475;23;20021;-94
2023/05/19 11:47:05;;;;;;;23.63;21.63;;;24.90;99.90;;;;;;6103154;23;20368;-94
2023/05/19 11:49:55;;;;;;;22.25;20.85;;;25.00;99.90;;;;;;6102805;23;20036;-94
2023/05/19 11:52:29;;;;;;;23.23;21.45;;;24.80;99.90;;;;;;6106854;23;20006;-94
2023/05/19 11:55:00;;;;;;;22.88;21.40;;;24.80;99.90;;;;;;6104871;23;20016;-94
2023/05/19 11:57:30;;;;;;;23.17;21.77;;;24.40;99.90;;;;;;6106272;23;20009;-93
2023/05/19 12:00:01;;;;;;;23.42;21.83;;;24.20;99.90;;;;;;6129173;23;20025;-94
2023/05/19 12:02:38;;;;;;;24.05;22.35;;;24.00;99.90;;;;;;6148392;23;20081;-94
2023/05/19 12:05:17;;;;;;;22.77;21.48;;;24.40;99.90;;;;;;6102356;23;20463;-94
2023/05/19 12:07:44;;;;;;;23.10;21.23;;;24.50;99.90;;;;;;6105173;23;20006;-95
2023/05/19 12:10:12;;;;;;;22.83;21.15;;;25.00;99.90;;;;;;6108985;23;20025;-94
2023/05/19 12:15:53;;;;;;;21.92;20.52;;;24.00;99.90;;;;;;6261287;23;20069;-95
2023/05/19 12:19:00;;;;;;;22.95;21.20;;;24.10;99.90;;;;;;6201082;23;20020;-94
2023/05/19 12:21:58;;;;;;;22.42;20.75;;;24.30;99.90;;;;;;6164716;23;20005;-94
2023/05/19 12:24:47;;;;;;;21.60;20.05;;;24.10;99.90;;;;;;6209005;23;20012;-95
2023/05/19 12:27:26;;;;;;;21.83;20.50;;;23.90;99.90;;;;;;6173122;23;20004;-94
2023/05/19 12:30:02;;;;;;;23.00;21.30;;;23.70;99.90;;;;;;6173850;23;20425;-94
2023/05/19 12:33:18;;;;;;;22.20;20.80;;;24.30;99.90;;;;;;6195395;23;20091;-94
2023/05/19 12:35:53;;;;;;;22.52;21.00;;;24.80;99.90;;;;;;6112752;23;20006;-94
2023/05/19 12:38:22;;;;;;;22.25;20.75;;;25.30;99.90;;;;;;6140203;23;20052;-94
2023/05/19 12:41:01;;;;;;;22.38;20.88;;;25.30;99.90;;;;;;6142465;23;20045;-93
2023/05/19 12:43:48;;;;;;;22.33;20.92;;;25.40;99.90;;;;;;6145438;23;20001;-94
2023/05/19 12:46:33;;;;;;;22.50;20.92;;;24.70;99.90;;;;;;6182947;22;20028;-92
2023/05/19 12:50:19;;;;;;;21.55;20.27;;;24.10;99.90;;;;;;6231602;23;20025;-94
2023/05/19 12:53:14;;;;;;;22.45;21.00;;;23.90;99.90;;;;;;6231046;23;20056;-94
2023/05/19 12:55:44;;;;;;;22.42;20.98;;;24.40;99.90;;;;;;6220759;23;20080;-92
2023/05/19 12:58:16;;;;;;;22.00;20.45;;;24.00;99.90;;;;;;6217291;23;20017;-94
2023/05/19 13:00:45;;;;;;;21.67;20.13;;;24.00;99.90;;;;;;6219172;23;20012;-94
2023/05/19 13:03:19;;;;;;;22.30;20.80;;;24.10;99.90;;;;;;6224225;23;20001;-94
2023/05/19 13:05:50;;;;;;;22.08;20.58;;;24.70;99.90;;;;;;6228740;23;20112;-94
2023/05/19 13:17:57;;;;;;;22.15;20.70;;;23.70;99.90;;;;;;6255668;22;20079;-93
2023/05/19 13:20:37;;;;;;;22.38;20.77;;;23.80;99.90;;;;;;6080914;23;20452;-94
2023/05/19 13:23:08;;;;;;;21.42;20.13;;;24.00;99.90;;;;;;6107254;23;20101;-95
2023/05/19 13:26:33;;;;;;;22.70;21.30;;;24.10;99.90;;;;;;6113139;23;20010;-94
2023/05/19 13:29:27;;;;;;;22.80;21.30;;;23.60;99.90;;;;;;6082699;23;20003;-94
2023/05/19 13:32:08;;;;;;;21.80;20.60;;;23.30;99.90;;;;;;6027868;23;20070;-93
2023/05/19 14:12:29;;;;;;;22.02;20.65;;;23.50;99.90;;;;;;6231323;22;20356;-93
2023/05/19 14:30:21;;;;;;;22.15;20.75;;;24.00;99.90;;;;;;6229809;22;20055;-92
2023/05/19 16:58:04;;;;;;;22.15;20.70;;;21.00;99.90;;;;;;6261438;22;20024;-93
2023/05/19 17:00:56;;;;;;;23.00;21.13;;;20.90;99.90;;;;;;6258314;22;20015;-94
2023/05/19 18:10:02;;;;;;;20.25;18.45;;;18.30;99.90;;;;;;6251544;22;20007;-93
2023/05/19 18:15:41;;;;;;;20.08;18.25;;;18.20;99.90;;;;;;6220201;23;20091;-92
2023/05/19 18:18:19;;;;;;;19.65;17.98;;;18.00;99.90;;;;;;6232069;23;20012;-92
2023/05/19 18:21:16;;;;;;;19.38;17.67;;;17.90;99.90;;;;;;6233144;22;20012;-92
2023/05/19 18:23:46;;;;;;;18.95;17.48;;;17.90;99.90;;;;;;6220997;23;20099;-79
2023/05/19 18:26:13;;;;;;;18.63;16.75;;;18.00;99.90;;;;;;6190377;23;20329;-83
2023/05/19 18:28:40;;;;;;;19.33;17.42;;;18.00;99.90;;;;;;6217963;23;20028;-90
2023/05/19 18:31:16;;;;;;;19.10;17.60;;;17.90;99.90;;;;;;6190966;23;20004;-82
2023/05/19 18:33:43;;;;;;;19.98;17.98;;;17.90;99.90;;;;;;6215635;23;20015;-82
2023/05/19 18:36:09;;;;;;;19.45;17.88;;;18.00;99.90;;;;;;6191650;23;20434;-83
2023/05/19 18:38:35;;;;;;;20.38;18.55;;;17.90;99.90;;;;;;6191644;23;20012;-84
2023/05/19 18:41:02;;;;;;;20.70;18.65;;;17.90;99.90;;;;;;6192082;23;20005;-83
2023/05/19 18:43:31;;;;;;;20.73;18.90;;;17.80;99.90;;;;;;6191942;23;20009;-83
2023/05/19 18:45:57;;;;;;;20.30;18.50;;;17.70;99.90;;;;;;6192147;23;20014;-84
2023/05/19 18:48:27;;;;;;;20.48;18.55;;;17.70;99.90;;;;;;6192052;23;20519;-83
2023/05/19 18:50:53;;;;;;;19.70;18.15;;;17.60;99.90;;;;;;6217093;23;20342;-83
2023/05/19 18:53:21;;;;;;;19.98;18.02;;;17.60;99.90;;;;;;6191874;23;20345;-83
2023/05/19 18:55:48;;;;;;;20.83;18.40;;;17.60;99.90;;;;;;6185664;23;20036;-85
2023/05/19 18:58:16;;;;;;;21.50;18.00;;;17.50;99.90;;;;;;6159931;23;20021;-83
2023/05/19 19:00:42;;;;;;;18.85;17.33;;;17.50;99.90;;;;;;6160636;23;20036;-85
2023/05/19 19:03:10;;;;;;;18.92;17.23;;;17.40;99.90;;;;;;6160045;23;20013;-84
2023/05/19 19:05:37;;;;;;;18.77;17.48;;;17.30;99.90;;;;;;6158767;23;20028;-84
2023/05/19 19:08:04;;;;;;;17.75;16.30;;;17.20;99.90;;;;;;6159130;23;20021;-83
2023/05/19 19:10:33;;;;;;;21.98;17.40;;;17.20;99.90;;;;;;6159702;23;20013;-83
2023/05/19 19:12:59;;;;;;;18.35;16.52;;;17.20;99.90;;;;;;6160434;23;20009;-85
2023/05/19 19:15:27;;;;;;;18.35;16.65;;;17.20;99.90;;;;;;6161041;23;20011;-83
2023/05/19 19:17:54;;;;;;;17.92;16.35;;;17.20;99.90;;;;;;6159913;23;20009;-83
2023/05/19 19:20:23;;;;;;;18.67;16.98;;;17.30;99.90;;;;;;6185800;23;20018;-94
2023/05/19 19:22:53;;;;;;;17.67;16.17;;;17.30;99.90;;;;;;6163167;23;20020;-92
2023/05/19 19:25:20;;;;;;;19.27;17.15;;;17.20;99.90;;;;;;6159730;23;20021;-89
2023/05/19 23:48:43;;;;;;;14.27;9.73;;;16.60;99.90;;;;;;6255710;22;20035;-94
2023/05/19 23:51:09;;;;;;;14.75;9.63;;;16.50;99.90;;;;;;6226461;22;20004;-91
2023/05/19 23:53:36;;;;;;;12.68;8.88;;;16.60;99.90;;;;;;6225843;22;20090;-91
2023/05/19 23:56:06;;;;;;;17.50;9.50;;;16.60;99.90;;;;;;6225946;22;20008;-92
2023/05/19 23:58:34;;;;;;;12.52;8.95;;;16.60;99.90;;;;;;6202270;23;20021;-94
